バンギ の空港の天気 - METARとTAF

バンギ・ムポコ国際空港 ( FEFF / BGF ) - 中央アフリカ バンギ
飛行場実況気象(Metar)
観測時間04/10 05:00 WAT (04/10 04:00 UTC)
風向・風速不定 1m/s
視程7000m
天気現象
少しの雲 雲底高度 150m
気温23℃
湿度100%
気圧1009hPa
METARFEFF 100400Z VRB02KT 7000 FEW005 23/23 Q1009 TEMPO 4000 BR
過去の天気等 Google飛行場航空写真 Wunderground天気予報

過去48時間のMETAR

飛行場予報(TAF)
発表時間: 4/10 00:00 WAT (4/09 23:00 UTC)
予報対象時間: 10日1時 WAT ~ 11日7時 WAT
風向・風速不定 1m/s
視程10km以上
なし
10日4時 WAT ~ 10日6時 WAT に徐々に
視程3000m
天気現象もや
全天の8割程度の雲 雲底高度 90m
10日8時 WAT ~ 10日10時 WAT に徐々に
視程10km以上
天気現象運行に影響にある天気現象が終了
全天の8割程度の雲 雲底高度 400m
10日11時 WAT ~ 10日13時 WAT に徐々に
全天の4割程度の雲 雲底高度 700m
少しの積乱雲 雲底高度 1220m
10日14時 WAT ~ 10日18時 WAT に一時的に
風向・風速不定 8m/s
視程4000m
天気現象雷雨
TAF FEFF 092300Z 1000/1106 VRB02KT CAVOK
BECMG 1003/1005 3000 BR BKN003
BECMG 1007/1009 9999 NSW BKN013
BECMG 1010/1012 SCT023 FEW040CB
TEMPO 1013/1017 VRB15KT 4000 TSRA